createdAt,value
2017-08-25T00:01:02.499Z,21.22
2017-08-25T00:03:30.030Z,21.16
2017-08-25T00:05:57.490Z,21.08
2017-08-25T00:08:24.981Z,21.05
2017-08-25T00:10:53.288Z,21.04
2017-08-25T00:13:20.777Z,21.07
2017-08-25T00:15:48.240Z,21.09
2017-08-25T00:18:15.721Z,21.04
2017-08-25T00:20:43.181Z,20.96
2017-08-25T00:23:10.645Z,20.81
2017-08-25T00:25:38.133Z,20.72
2017-08-25T00:28:05.577Z,20.81
2017-08-25T00:30:33.068Z,20.87
2017-08-25T00:33:00.527Z,20.90
2017-08-25T00:35:28.035Z,20.54
2017-08-25T00:37:55.487Z,20.46
2017-08-25T00:40:22.981Z,20.53
2017-08-25T00:42:50.516Z,20.41
2017-08-25T00:45:18.334Z,20.38
2017-08-25T00:47:45.799Z,20.45
2017-08-25T00:50:13.272Z,20.45
2017-08-25T00:52:40.783Z,20.55
2017-08-25T00:55:08.265Z,20.57
2017-08-25T00:57:35.751Z,20.53
2017-08-25T01:00:03.221Z,20.50
2017-08-25T01:02:30.722Z,20.64
2017-08-25T01:04:58.197Z,20.56
2017-08-25T01:07:25.802Z,20.50
2017-08-25T01:09:53.298Z,20.39
2017-08-25T01:12:20.790Z,20.38
2017-08-25T01:14:48.255Z,20.48
2017-08-25T01:17:15.733Z,20.34
2017-08-25T01:19:43.190Z,20.28
2017-08-25T01:22:10.696Z,20.34
2017-08-25T01:24:38.183Z,20.35
2017-08-25T01:27:06.123Z,20.30
2017-08-25T01:29:33.657Z,20.29
2017-08-25T01:32:01.102Z,20.24
2017-08-25T01:34:28.595Z,20.27
2017-08-25T01:36:56.054Z,20.38
2017-08-25T01:39:23.529Z,20.52
2017-08-25T01:41:51.009Z,20.45
2017-08-25T01:44:18.489Z,20.09
2017-08-25T01:46:45.951Z,20.05
2017-08-25T01:49:13.442Z,20.01
2017-08-25T01:51:40.904Z,19.84
2017-08-25T01:54:08.377Z,19.96
2017-08-25T01:56:35.891Z,20.04
2017-08-25T01:59:03.365Z,20.03
2017-08-25T02:01:30.873Z,19.90
2017-08-25T02:03:58.344Z,19.98
2017-08-25T02:06:25.845Z,19.99
2017-08-25T02:08:53.293Z,20.00
2017-08-25T02:11:20.759Z,20.03
2017-08-25T02:13:48.258Z,20.24
2017-08-25T02:16:15.772Z,20.31
2017-08-25T02:18:44.001Z,20.27
2017-08-25T02:21:11.517Z,20.08
2017-08-25T02:23:38.965Z,20.09
2017-08-25T02:26:06.448Z,20.04
2017-08-25T02:28:33.941Z,19.96
2017-08-25T02:31:01.430Z,19.88
2017-08-25T02:33:28.927Z,19.92
2017-08-25T02:35:56.862Z,20.09
2017-08-25T02:38:24.360Z,20.13
2017-08-25T02:40:51.823Z,20.14
2017-08-25T02:43:19.310Z,20.14
2017-08-25T02:45:46.787Z,20.03
2017-08-25T02:48:14.273Z,19.85
2017-08-25T02:50:41.771Z,19.79
2017-08-25T02:53:09.254Z,19.81
2017-08-25T02:55:36.759Z,19.85
2017-08-25T02:58:04.222Z,19.80
2017-08-25T03:00:31.723Z,19.84
2017-08-25T03:02:59.169Z,19.92
2017-08-25T03:05:26.650Z,19.93
2017-08-25T03:07:54.126Z,19.87
2017-08-25T03:10:21.624Z,19.84
2017-08-25T03:12:49.117Z,19.85
2017-08-25T03:15:16.602Z,19.80
2017-08-25T03:17:44.203Z,19.78
2017-08-25T03:20:11.661Z,19.28
2017-08-25T03:22:39.117Z,19.33
2017-08-25T03:25:06.925Z,19.45
2017-08-25T03:27:34.389Z,19.50
2017-08-25T03:30:01.857Z,19.46
2017-08-25T03:32:29.347Z,19.52
2017-08-25T03:34:56.805Z,19.59
2017-08-25T03:37:24.295Z,19.63
2017-08-25T03:39:51.786Z,19.70
2017-08-25T03:42:19.271Z,19.70
2017-08-25T03:44:47.541Z,19.67
2017-08-25T03:47:15.056Z,19.64
2017-08-25T03:49:42.561Z,19.68
2017-08-25T03:52:10.048Z,19.62
2017-08-25T03:54:37.525Z,19.53
2017-08-25T03:57:05.882Z,19.60
2017-08-25T03:59:33.393Z,19.61
2017-08-25T04:02:00.846Z,19.59
2017-08-25T04:04:28.330Z,19.54
2017-08-25T04:06:55.835Z,19.49
2017-08-25T04:09:23.317Z,19.44
2017-08-25T04:11:50.839Z,19.42
2017-08-25T04:14:18.439Z,19.41
2017-08-25T04:16:45.903Z,19.41
2017-08-25T04:19:13.386Z,19.30
2017-08-25T04:21:40.869Z,19.22
2017-08-25T04:24:08.318Z,19.25
2017-08-25T04:26:36.783Z,19.28
2017-08-25T04:29:04.313Z,19.25
2017-08-25T04:31:31.850Z,19.24
2017-08-25T04:33:59.326Z,19.22
2017-08-25T04:36:26.816Z,19.23
2017-08-25T04:38:54.299Z,19.19
2017-08-25T04:41:21.806Z,19.28
2017-08-25T04:43:49.269Z,19.30
2017-08-25T04:46:16.759Z,19.24
2017-08-25T04:48:44.245Z,19.28
2017-08-25T04:51:11.738Z,19.21
2017-08-25T04:53:39.192Z,19.00
2017-08-25T04:56:06.705Z,19.22
2017-08-25T04:58:34.199Z,19.17
2017-08-25T05:01:01.679Z,19.17
2017-08-25T05:03:29.179Z,19.14
2017-08-25T05:05:56.727Z,19.22
2017-08-25T05:08:24.209Z,19.25
2017-08-25T05:10:52.379Z,19.20
2017-08-25T05:13:19.861Z,19.14
2017-08-25T05:15:47.358Z,19.20
2017-08-25T05:18:15.043Z,19.21
2017-08-25T05:20:43.490Z,19.11
2017-08-25T05:23:11.040Z,19.13
2017-08-25T05:25:38.539Z,19.21
2017-08-25T05:28:06.049Z,19.23
2017-08-25T05:30:33.562Z,19.18
2017-08-25T05:33:01.013Z,19.15
2017-08-25T05:35:28.506Z,19.20
2017-08-25T05:37:55.995Z,19.22
2017-08-25T05:40:23.546Z,19.29
2017-08-25T05:42:51.056Z,19.23
2017-08-25T05:45:18.543Z,19.34
2017-08-25T05:47:46.053Z,19.21
2017-08-25T05:50:13.612Z,19.26
2017-08-25T05:52:41.184Z,19.35
2017-08-25T05:55:08.681Z,19.41
2017-08-25T05:57:36.361Z,19.43
2017-08-25T06:00:03.906Z,19.40
2017-08-25T06:02:31.409Z,19.48
2017-08-25T06:04:58.976Z,19.59
2017-08-25T06:07:26.464Z,19.65
2017-08-25T06:09:54.205Z,19.67
2017-08-25T06:12:21.859Z,19.56
2017-08-25T06:14:49.310Z,19.68
2017-08-25T06:17:16.773Z,19.81
2017-08-25T06:19:44.388Z,19.75
2017-08-25T06:22:11.869Z,19.69
2017-08-25T06:27:13.073Z,19.79
2017-08-25T06:29:40.613Z,19.93
2017-08-25T06:32:08.098Z,19.96
2017-08-25T06:34:35.588Z,20.00
2017-08-25T06:37:03.048Z,20.04
2017-08-25T06:39:32.062Z,20.15
2017-08-25T06:42:01.574Z,20.27
2017-08-25T06:44:29.079Z,20.34
2017-08-25T06:46:56.665Z,20.49
2017-08-25T06:49:24.128Z,20.49
2017-08-25T06:51:51.713Z,20.53
2017-08-25T06:54:19.184Z,20.64
2017-08-25T06:56:46.663Z,20.85
2017-08-25T06:59:14.185Z,20.95
2017-08-25T07:01:41.669Z,21.03
2017-08-25T07:04:09.163Z,21.11
2017-08-25T07:06:36.642Z,21.12
2017-08-25T07:09:04.375Z,21.14
2017-08-25T07:11:31.876Z,21.24
2017-08-25T07:13:59.330Z,21.37
2017-08-25T07:16:26.827Z,21.47
2017-08-25T07:18:54.318Z,21.60
2017-08-25T07:21:22.385Z,21.75
2017-08-25T07:23:50.582Z,21.78
2017-08-25T07:26:18.088Z,21.80
2017-08-25T07:28:45.578Z,21.92
2017-08-25T07:31:13.353Z,22.09
2017-08-25T07:33:40.819Z,22.10
2017-08-25T07:36:08.349Z,22.22
2017-08-25T07:38:35.834Z,22.25
2017-08-25T07:41:03.336Z,22.34
2017-08-25T07:43:31.140Z,22.44
2017-08-25T07:45:58.634Z,22.51
2017-08-25T07:48:26.138Z,22.65
2017-08-25T07:50:53.689Z,22.71
2017-08-25T07:53:21.201Z,22.90
2017-08-25T07:55:48.676Z,23.06
2017-08-25T07:58:16.158Z,23.13
2017-08-25T08:00:44.062Z,23.20
2017-08-25T08:03:11.586Z,23.25
2017-08-25T08:05:39.067Z,23.32
2017-08-25T08:08:06.573Z,23.33
2017-08-25T08:10:34.765Z,23.45
2017-08-25T08:13:02.349Z,23.50
2017-08-25T08:15:29.809Z,23.47
2017-08-25T08:17:57.257Z,23.60
2017-08-25T08:20:24.766Z,23.72
2017-08-25T08:22:52.237Z,23.74
2017-08-25T08:25:19.725Z,23.70
2017-08-25T08:27:47.204Z,23.82
2017-08-25T08:30:14.705Z,23.83
2017-08-25T08:32:42.180Z,23.95
2017-08-25T08:35:09.670Z,24.16
2017-08-25T08:37:37.149Z,24.20
2017-08-25T08:40:05.125Z,24.20
2017-08-25T08:42:32.620Z,24.29
2017-08-25T08:45:00.113Z,24.40
2017-08-25T08:47:27.599Z,24.57
2017-08-25T08:52:28.832Z,24.73
2017-08-25T08:54:56.286Z,24.33
2017-08-25T08:57:23.782Z,24.89
2017-08-25T08:59:52.150Z,25.06
2017-08-25T09:02:19.634Z,25.15
2017-08-25T09:04:47.149Z,25.20
2017-08-25T09:07:14.695Z,25.26
2017-08-25T09:09:42.178Z,25.35
2017-08-25T09:12:09.661Z,25.44
2017-08-25T09:14:37.471Z,25.47
2017-08-25T09:17:04.997Z,25.55
2017-08-25T09:19:33.006Z,25.68
2017-08-25T09:22:00.481Z,25.73
2017-08-25T09:24:27.996Z,25.78
2017-08-25T09:26:55.492Z,25.88
2017-08-25T09:29:22.981Z,25.99
2017-08-25T09:31:50.565Z,26.13
2017-08-25T09:34:18.048Z,26.20
2017-08-25T09:36:45.515Z,26.31
2017-08-25T09:39:13.003Z,26.47
2017-08-25T09:41:40.512Z,26.63
2017-08-25T09:44:07.965Z,26.70
2017-08-25T09:46:35.459Z,26.83
2017-08-25T09:49:03.984Z,26.88
2017-08-25T09:51:32.381Z,26.76
2017-08-25T09:53:59.932Z,26.83
2017-08-25T09:56:27.492Z,26.94
2017-08-25T09:58:55.931Z,26.91
2017-08-25T10:01:23.446Z,27.05
2017-08-25T10:03:50.920Z,27.13
2017-08-25T10:06:18.426Z,27.08
2017-08-25T10:08:45.906Z,27.29
2017-08-25T10:11:13.450Z,27.44
2017-08-25T10:13:41.004Z,27.55
2017-08-25T10:16:09.462Z,27.64
2017-08-25T10:18:36.969Z,27.77
2017-08-25T10:21:05.515Z,27.87
2017-08-25T10:23:42.732Z,27.94
2017-08-25T10:26:10.247Z,27.92
2017-08-25T10:28:37.728Z,27.99
2017-08-25T10:31:06.086Z,27.82
2017-08-25T10:33:43.585Z,27.91
2017-08-25T10:36:22.958Z,27.94
2017-08-25T10:39:02.150Z,28.21
2017-08-25T10:41:41.344Z,28.29
2017-08-25T10:44:20.814Z,28.42
2017-08-25T10:46:48.388Z,28.49
2017-08-25T10:49:18.291Z,28.62
2017-08-25T10:51:46.552Z,28.60
2017-08-25T10:54:14.024Z,28.59
2017-08-25T10:56:42.778Z,28.57
2017-08-25T10:59:10.659Z,28.73
2017-08-25T11:01:38.198Z,28.80
2017-08-25T11:04:05.667Z,28.84
2017-08-25T11:06:33.156Z,28.84
2017-08-25T11:09:00.655Z,28.83
2017-08-25T11:11:28.729Z,28.94
2017-08-25T11:13:56.217Z,29.08
2017-08-25T11:16:23.703Z,29.24
2017-08-25T11:18:51.251Z,29.33
2017-08-25T11:21:18.748Z,29.30
2017-08-25T11:23:46.275Z,29.42
2017-08-25T11:26:13.765Z,29.56
2017-08-25T11:28:41.277Z,29.42
2017-08-25T11:31:08.811Z,29.69
2017-08-25T11:33:36.310Z,29.79
2017-08-25T11:36:03.781Z,29.87
2017-08-25T11:38:31.276Z,29.58
2017-08-25T11:40:58.735Z,29.94
2017-08-25T11:43:26.303Z,30.02
2017-08-25T11:45:53.822Z,30.26
2017-08-25T11:48:21.387Z,30.29
2017-08-25T11:50:48.904Z,30.42
2017-08-25T11:53:16.434Z,30.57
2017-08-25T11:55:43.953Z,30.60
2017-08-25T11:58:11.481Z,30.53
2017-08-25T12:00:38.980Z,30.46
2017-08-25T12:03:06.446Z,30.67
2017-08-25T12:05:33.970Z,30.64
2017-08-25T12:08:01.455Z,30.55
2017-08-25T12:10:28.933Z,30.51
2017-08-25T12:12:56.417Z,30.53
2017-08-25T12:15:23.887Z,30.62
2017-08-25T12:17:51.417Z,30.79
2017-08-25T12:20:19.183Z,30.92
2017-08-25T12:22:46.695Z,31.19
2017-08-25T12:25:14.150Z,31.31
2017-08-25T12:27:41.655Z,31.23
2017-08-25T12:30:09.440Z,31.35
2017-08-25T12:32:36.950Z,31.55
2017-08-25T12:35:05.013Z,31.60
2017-08-25T12:37:32.491Z,31.58
2017-08-25T12:39:59.989Z,31.82
2017-08-25T12:42:27.486Z,32.00
2017-08-25T12:44:54.999Z,32.04
2017-08-25T12:47:27.440Z,32.08
2017-08-25T12:49:54.938Z,32.32
2017-08-25T12:52:23.054Z,32.33
2017-08-25T12:54:50.664Z,32.25
2017-08-25T12:57:18.196Z,32.40
2017-08-25T12:59:45.664Z,32.51
2017-08-25T13:02:13.157Z,32.73
2017-08-25T13:04:40.790Z,32.89
2017-08-25T13:07:09.275Z,33.08
2017-08-25T13:09:36.726Z,33.19
2017-08-25T13:12:05.030Z,32.88
2017-08-25T13:14:32.542Z,32.86
2017-08-25T13:17:00.115Z,32.75
2017-08-25T13:19:27.614Z,32.45
2017-08-25T13:21:55.107Z,32.27
2017-08-25T13:24:22.587Z,32.31
2017-08-25T13:26:50.188Z,32.51
2017-08-25T13:29:18.433Z,32.42
2017-08-25T13:31:45.896Z,32.26
2017-08-25T13:34:14.186Z,32.35
2017-08-25T13:36:41.734Z,32.47
2017-08-25T13:39:09.657Z,32.44
2017-08-25T13:41:37.145Z,32.76
2017-08-25T13:44:04.658Z,33.13
2017-08-25T13:46:32.190Z,33.56
2017-08-25T13:49:00.424Z,33.46
2017-08-25T13:51:27.900Z,33.69
2017-08-25T13:53:55.407Z,33.52
2017-08-25T13:56:22.880Z,33.41
2017-08-25T13:58:50.373Z,33.59
2017-08-25T14:01:17.842Z,33.81
2017-08-25T14:03:45.376Z,34.08
2017-08-25T14:06:12.849Z,34.55
2017-08-25T14:08:40.391Z,34.99
2017-08-25T14:11:08.703Z,34.97
2017-08-25T14:13:36.179Z,34.39
2017-08-25T14:16:03.705Z,34.04
2017-08-25T14:18:31.890Z,33.94
2017-08-25T14:20:59.415Z,34.01
2017-08-25T14:23:26.934Z,34.49
2017-08-25T14:25:54.437Z,34.80
2017-08-25T14:28:21.911Z,35.10
2017-08-25T14:30:49.414Z,35.30
2017-08-25T14:33:16.954Z,35.10
2017-08-25T14:35:44.436Z,35.38
2017-08-25T14:38:14.178Z,35.44
2017-08-25T14:40:41.639Z,35.17
2017-08-25T14:43:09.985Z,35.21
2017-08-25T14:45:37.447Z,34.99
2017-08-25T14:48:05.802Z,34.72
2017-08-25T14:50:33.266Z,34.95
2017-08-25T14:53:00.894Z,35.08
2017-08-25T14:55:28.880Z,34.64
2017-08-25T14:57:56.369Z,33.96
2017-08-25T15:00:23.881Z,33.83
2017-08-25T15:02:51.353Z,33.51
2017-08-25T15:05:18.850Z,33.34
2017-08-25T15:07:46.341Z,32.80
2017-08-25T15:10:14.094Z,32.84
2017-08-25T15:12:41.594Z,32.92
2017-08-25T15:15:09.074Z,32.85
2017-08-25T15:17:36.607Z,32.92
2017-08-25T15:20:04.691Z,32.62
2017-08-25T15:22:32.157Z,32.40
2017-08-25T15:24:59.659Z,32.40
2017-08-25T15:27:27.163Z,32.31
2017-08-25T15:29:54.655Z,32.36
2017-08-25T15:32:22.161Z,32.35
2017-08-25T15:34:49.792Z,32.35
2017-08-25T15:37:17.867Z,31.99
2017-08-25T15:39:45.427Z,32.16
2017-08-25T15:42:12.965Z,32.12
2017-08-25T15:44:40.419Z,32.03
2017-08-25T15:47:07.915Z,31.92
2017-08-25T15:49:35.402Z,31.89
2017-08-25T15:52:02.858Z,31.70
2017-08-25T15:54:31.283Z,31.59
2017-08-25T15:56:59.165Z,31.47
2017-08-25T15:59:26.667Z,31.21
2017-08-25T16:01:54.146Z,30.89
2017-08-25T16:04:21.646Z,30.58
2017-08-25T16:06:49.134Z,30.00
2017-08-25T16:09:16.709Z,29.55
2017-08-25T16:11:44.241Z,28.47
2017-08-25T16:14:11.735Z,28.21
2017-08-25T16:16:39.241Z,27.75
2017-08-25T16:19:06.737Z,27.28
2017-08-25T16:21:34.208Z,27.00
2017-08-25T16:24:01.688Z,27.12
2017-08-25T16:26:29.357Z,27.21
2017-08-25T16:28:56.847Z,27.36
2017-08-25T16:31:24.382Z,27.62
2017-08-25T16:33:51.842Z,28.03
2017-08-25T16:36:19.384Z,28.16
2017-08-25T16:38:46.914Z,28.21
2017-08-25T16:41:14.404Z,28.09
2017-08-25T16:43:41.882Z,27.64
2017-08-25T16:46:09.401Z,27.38
2017-08-25T16:48:36.878Z,27.46
2017-08-25T16:51:04.350Z,27.52
2017-08-25T16:53:31.854Z,27.52
2017-08-25T16:55:59.338Z,27.40
2017-08-25T16:58:27.094Z,27.45
2017-08-25T17:00:54.544Z,27.41
2017-08-25T17:03:22.041Z,27.60
2017-08-25T17:05:49.498Z,27.75
2017-08-25T17:08:16.966Z,27.71
2017-08-25T17:10:44.461Z,27.77
2017-08-25T17:13:11.951Z,27.84
2017-08-25T17:15:39.439Z,27.81
2017-08-25T17:18:06.921Z,27.75
2017-08-25T17:20:34.419Z,27.57
2017-08-25T17:23:01.873Z,27.43
2017-08-25T17:25:29.411Z,27.37
2017-08-25T17:27:56.862Z,27.46
2017-08-25T17:30:24.351Z,27.32
2017-08-25T17:32:51.854Z,27.24
2017-08-25T17:35:19.333Z,27.11
2017-08-25T17:37:46.818Z,26.96
2017-08-25T17:40:14.273Z,26.93
2017-08-25T17:42:41.753Z,26.88
2017-08-25T17:45:09.222Z,26.88
2017-08-25T17:47:37.086Z,26.57
2017-08-25T17:50:04.541Z,26.75
2017-08-25T17:52:32.005Z,26.70
2017-08-25T17:55:00.310Z,26.75
2017-08-25T17:57:27.827Z,26.68
2017-08-25T17:59:55.315Z,26.54
2017-08-25T18:02:23.322Z,26.74
2017-08-25T18:04:50.815Z,26.64
2017-08-25T18:07:18.282Z,26.49
2017-08-25T18:09:45.811Z,26.48
2017-08-25T18:12:13.319Z,26.57
2017-08-25T18:14:40.794Z,26.55
2017-08-25T18:17:08.280Z,26.44
2017-08-25T18:19:35.766Z,26.42
2017-08-25T18:22:03.270Z,26.42
2017-08-25T18:24:31.095Z,26.28
2017-08-25T18:26:58.606Z,26.22
2017-08-25T18:29:26.063Z,26.24
2017-08-25T18:31:53.568Z,26.29
2017-08-25T18:34:21.062Z,26.19
2017-08-25T18:36:48.553Z,26.12
2017-08-25T18:39:16.117Z,26.13
2017-08-25T18:41:43.596Z,26.10
2017-08-25T18:44:11.273Z,26.03
2017-08-25T18:46:38.744Z,25.98
2017-08-25T18:49:06.218Z,25.88
2017-08-25T18:51:33.703Z,25.90
2017-08-25T18:54:01.189Z,25.90
2017-08-25T18:56:28.645Z,25.90
2017-08-25T18:58:56.133Z,25.92
2017-08-25T19:01:23.641Z,25.87
2017-08-25T19:03:51.095Z,25.83
2017-08-25T19:06:18.589Z,25.91
2017-08-25T19:08:46.056Z,25.74
2017-08-25T19:11:14.407Z,25.58
2017-08-25T19:13:41.924Z,25.64
2017-08-25T19:16:09.401Z,25.78
2017-08-25T19:18:36.895Z,25.79
2017-08-25T19:21:04.386Z,25.73
2017-08-25T19:23:31.903Z,25.77
2017-08-25T19:25:59.358Z,25.80
2017-08-25T19:28:26.988Z,25.73
2017-08-25T19:30:54.467Z,25.68
2017-08-25T19:33:21.939Z,25.78
2017-08-25T19:35:49.458Z,25.70
2017-08-25T19:38:16.967Z,25.67
2017-08-25T19:40:44.474Z,25.71
2017-08-25T19:43:11.963Z,25.73
2017-08-25T19:45:39.478Z,25.66
2017-08-25T19:48:06.962Z,25.44
2017-08-25T19:50:34.444Z,25.37
2017-08-25T19:53:01.933Z,25.43
2017-08-25T19:55:29.442Z,25.43
2017-08-25T19:57:56.946Z,25.39
2017-08-25T20:00:24.404Z,25.28
2017-08-25T20:02:51.912Z,25.26
2017-08-25T20:05:19.381Z,25.16
2017-08-25T20:07:46.995Z,25.18
2017-08-25T20:10:14.504Z,25.13
2017-08-25T20:12:41.991Z,25.05
2017-08-25T20:15:09.504Z,25.02
2017-08-25T20:17:36.961Z,24.97
2017-08-25T20:20:04.446Z,24.92
2017-08-25T20:22:31.930Z,24.83
2017-08-25T20:24:59.416Z,24.80
2017-08-25T20:27:26.895Z,24.73
2017-08-25T20:29:54.395Z,24.74
2017-08-25T20:32:22.237Z,24.75
2017-08-25T20:34:49.812Z,24.76
2017-08-25T20:37:17.287Z,24.71
2017-08-25T20:39:44.758Z,24.58
2017-08-25T20:42:12.254Z,24.40
2017-08-25T20:44:39.730Z,23.89
2017-08-25T20:47:07.456Z,24.16
2017-08-25T20:49:35.718Z,24.15
2017-08-25T20:52:03.189Z,24.24
2017-08-25T20:54:30.645Z,24.31
2017-08-25T20:56:58.120Z,24.36
2017-08-25T20:59:25.620Z,24.36
2017-08-25T21:01:53.092Z,24.40
2017-08-25T21:04:20.593Z,24.39
2017-08-25T21:06:48.068Z,24.37
2017-08-25T21:09:16.765Z,24.31
2017-08-25T21:11:44.234Z,24.24
2017-08-25T21:14:11.767Z,24.32
2017-08-25T21:16:39.247Z,24.32
2017-08-25T21:19:06.751Z,24.34
2017-08-25T21:21:34.212Z,24.28
2017-08-25T21:24:01.685Z,24.22
2017-08-25T21:26:29.181Z,24.18
2017-08-25T21:28:56.637Z,24.67
2017-08-25T21:31:24.120Z,25.06
2017-08-25T21:33:51.588Z,25.32
2017-08-25T21:36:19.078Z,25.46
2017-08-25T21:38:46.569Z,25.58
2017-08-25T21:41:14.084Z,25.66
2017-08-25T21:43:41.542Z,25.62
2017-08-25T21:46:09.032Z,25.67
2017-08-25T21:48:36.526Z,25.69
2017-08-25T21:51:03.989Z,25.70
2017-08-25T21:53:31.464Z,25.67
2017-08-25T21:55:58.938Z,25.68
2017-08-25T21:58:26.500Z,25.64
2017-08-25T22:00:53.985Z,25.64
2017-08-25T22:03:21.505Z,25.66
2017-08-25T22:05:48.987Z,25.66
2017-08-25T22:08:16.486Z,25.67
2017-08-25T22:10:43.941Z,25.54
2017-08-25T22:13:11.511Z,25.14
2017-08-25T22:15:39.079Z,24.82
2017-08-25T22:18:06.547Z,24.57
2017-08-25T22:20:34.027Z,24.39
2017-08-25T22:23:01.488Z,24.26
2017-08-25T22:25:28.992Z,23.31
2017-08-25T22:27:56.504Z,24.14
2017-08-25T22:30:24.009Z,24.07
2017-08-25T22:32:51.489Z,24.02
2017-08-25T22:35:18.992Z,23.89
2017-08-25T22:37:46.467Z,23.83
2017-08-25T22:40:13.965Z,23.82
2017-08-25T22:42:41.466Z,23.80
2017-08-25T22:45:08.942Z,23.72
2017-08-25T22:47:36.433Z,23.64
2017-08-25T22:50:03.917Z,23.58
2017-08-25T22:52:31.417Z,23.55
2017-08-25T22:54:58.898Z,23.52
2017-08-25T22:57:26.387Z,23.45
2017-08-25T22:59:53.840Z,23.44
2017-08-25T23:02:21.339Z,23.38
2017-08-25T23:04:48.880Z,23.34
2017-08-25T23:07:16.392Z,23.41
2017-08-25T23:09:43.921Z,23.43
2017-08-25T23:12:11.429Z,23.26
2017-08-25T23:14:38.929Z,23.27
2017-08-25T23:17:07.122Z,23.19
2017-08-25T23:19:34.662Z,23.20
2017-08-25T23:22:02.138Z,23.21
2017-08-25T23:24:29.625Z,23.18
2017-08-25T23:26:57.089Z,23.12
2017-08-25T23:29:24.579Z,22.99
2017-08-25T23:31:52.025Z,23.00
2017-08-25T23:34:19.518Z,22.92
2017-08-25T23:36:46.968Z,22.80
2017-08-25T23:39:14.460Z,22.79
2017-08-25T23:41:41.993Z,22.83
2017-08-25T23:44:09.494Z,22.83
2017-08-25T23:46:37.004Z,22.44
2017-08-25T23:49:05.239Z,22.77
2017-08-25T23:51:32.766Z,22.74
2017-08-25T23:54:00.245Z,22.69
2017-08-25T23:56:27.743Z,22.61
2017-08-25T23:58:55.226Z,22.51
